sensor_id;sensor_type;location;lat;lon;timestamp;P1;durP1;ratioP1;P2;durP2;ratioP2
53285;SDS011;39171;45.550;12.074;2022-11-20T00:04:32;3.90;;;3.08;;
53285;SDS011;39171;45.550;12.074;2022-11-20T00:10:35;4.40;;;3.15;;
53285;SDS011;39171;45.550;12.074;2022-11-20T00:16:38;3.53;;;3.08;;
53285;SDS011;39171;45.550;12.074;2022-11-20T00:22:39;3.30;;;2.72;;
53285;SDS011;39171;45.550;12.074;2022-11-20T00:28:41;3.42;;;2.85;;
53285;SDS011;39171;45.550;12.074;2022-11-20T00:34:50;3.33;;;2.60;;
53285;SDS011;39171;45.550;12.074;2022-11-20T00:40:58;3.25;;;2.53;;
53285;SDS011;39171;45.550;12.074;2022-11-20T00:47:01;3.22;;;2.70;;
53285;SDS011;39171;45.550;12.074;2022-11-20T00:53:02;3.55;;;2.47;;
53285;SDS011;39171;45.550;12.074;2022-11-20T00:59:04;3.22;;;2.58;;
53285;SDS011;39171;45.550;12.074;2022-11-20T01:05:05;3.47;;;2.58;;
53285;SDS011;39171;45.550;12.074;2022-11-20T01:11:11;3.45;;;2.40;;
53285;SDS011;39171;45.550;12.074;2022-11-20T01:17:14;3.30;;;2.40;;
53285;SDS011;39171;45.550;12.074;2022-11-20T01:23:15;2.92;;;2.22;;
53285;SDS011;39171;45.550;12.074;2022-11-20T01:29:21;2.65;;;2.08;;
53285;SDS011;39171;45.550;12.074;2022-11-20T01:35:23;2.80;;;2.15;;
53285;SDS011;39171;45.550;12.074;2022-11-20T01:41:25;2.92;;;2.20;;
53285;SDS011;39171;45.550;12.074;2022-11-20T01:47:47;2.80;;;1.90;;
53285;SDS011;39171;45.550;12.074;2022-11-20T01:53:50;2.55;;;1.92;;
53285;SDS011;39171;45.550;12.074;2022-11-20T01:59:57;2.38;;;1.98;;
53285;SDS011;39171;45.550;12.074;2022-11-20T02:06:17;2.58;;;2.13;;
53285;SDS011;39171;45.550;12.074;2022-11-20T02:12:23;2.20;;;1.80;;
53285;SDS011;39171;45.550;12.074;2022-11-20T02:18:44;2.70;;;2.00;;
53285;SDS011;39171;45.550;12.074;2022-11-20T02:24:46;2.90;;;2.28;;
53285;SDS011;39171;45.550;12.074;2022-11-20T02:30:48;2.80;;;2.40;;
53285;SDS011;39171;45.550;12.074;2022-11-20T02:36:50;2.78;;;2.05;;
53285;SDS011;39171;45.550;12.074;2022-11-20T02:42:53;2.92;;;2.40;;
53285;SDS011;39171;45.550;12.074;2022-11-20T02:48:56;2.95;;;2.20;;
53285;SDS011;39171;45.550;12.074;2022-11-20T02:54:57;3.25;;;2.50;;
53285;SDS011;39171;45.550;12.074;2022-11-20T03:00:58;2.75;;;2.35;;
53285;SDS011;39171;45.550;12.074;2022-11-20T03:07:00;3.13;;;2.40;;
53285;SDS011;39171;45.550;12.074;2022-11-20T03:13:01;3.42;;;2.67;;
53285;SDS011;39171;45.550;12.074;2022-11-20T03:19:04;3.95;;;2.83;;
53285;SDS011;39171;45.550;12.074;2022-11-20T03:25:06;3.65;;;2.78;;
53285;SDS011;39171;45.550;12.074;2022-11-20T03:31:09;3.33;;;2.47;;
53285;SDS011;39171;45.550;12.074;2022-11-20T03:37:12;3.40;;;2.45;;
53285;SDS011;39171;45.550;12.074;2022-11-20T03:43:13;3.40;;;2.80;;
53285;SDS011;39171;45.550;12.074;2022-11-20T03:49:14;3.78;;;2.80;;
53285;SDS011;39171;45.550;12.074;2022-11-20T03:55:16;3.90;;;3.17;;
53285;SDS011;39171;45.550;12.074;2022-11-20T04:01:21;4.78;;;3.75;;
53285;SDS011;39171;45.550;12.074;2022-11-20T04:07:25;4.75;;;3.58;;
53285;SDS011;39171;45.550;12.074;2022-11-20T04:13:27;3.83;;;3.15;;
53285;SDS011;39171;45.550;12.074;2022-11-20T04:19:28;3.80;;;2.70;;
53285;SDS011;39171;45.550;12.074;2022-11-20T04:25:29;2.90;;;2.30;;
53285;SDS011;39171;45.550;12.074;2022-11-20T04:31:32;3.58;;;2.53;;
53285;SDS011;39171;45.550;12.074;2022-11-20T04:37:35;3.80;;;2.78;;
53285;SDS011;39171;45.550;12.074;2022-11-20T04:43:36;2.70;;;2.20;;
53285;SDS011;39171;45.550;12.074;2022-11-20T04:49:37;2.70;;;2.40;;
53285;SDS011;39171;45.550;12.074;2022-11-20T04:55:39;5.03;;;3.30;;
53285;SDS011;39171;45.550;12.074;2022-11-20T05:01:40;5.68;;;3.78;;
53285;SDS011;39171;45.550;12.074;2022-11-20T05:07:42;5.05;;;3.65;;
53285;SDS011;39171;45.550;12.074;2022-11-20T05:13:43;4.22;;;3.38;;
53285;SDS011;39171;45.550;12.074;2022-11-20T05:19:45;3.92;;;3.00;;
53285;SDS011;39171;45.550;12.074;2022-11-20T05:25:46;4.72;;;3.35;;
53285;SDS011;39171;45.550;12.074;2022-11-20T05:31:48;4.10;;;2.95;;
53285;SDS011;39171;45.550;12.074;2022-11-20T05:37:49;3.42;;;2.83;;
53285;SDS011;39171;45.550;12.074;2022-11-20T05:43:50;3.83;;;3.00;;
53285;SDS011;39171;45.550;12.074;2022-11-20T05:49:53;4.18;;;3.28;;
53285;SDS011;39171;45.550;12.074;2022-11-20T05:55:58;3.17;;;2.65;;
53285;SDS011;39171;45.550;12.074;2022-11-20T06:02:01;3.55;;;2.97;;
53285;SDS011;39171;45.550;12.074;2022-11-20T06:08:02;4.13;;;3.50;;
53285;SDS011;39171;45.550;12.074;2022-11-20T06:14:04;3.65;;;3.03;;
53285;SDS011;39171;45.550;12.074;2022-11-20T06:20:06;3.53;;;3.22;;
53285;SDS011;39171;45.550;12.074;2022-11-20T06:26:09;4.00;;;3.35;;
53285;SDS011;39171;45.550;12.074;2022-11-20T06:32:12;3.97;;;3.28;;
53285;SDS011;39171;45.550;12.074;2022-11-20T06:38:13;4.22;;;3.60;;
53285;SDS011;39171;45.550;12.074;2022-11-20T06:44:15;4.18;;;3.53;;
53285;SDS011;39171;45.550;12.074;2022-11-20T06:50:16;4.05;;;3.20;;
53285;SDS011;39171;45.550;12.074;2022-11-20T06:56:18;4.10;;;3.70;;
53285;SDS011;39171;45.550;12.074;2022-11-20T07:02:19;4.50;;;3.97;;
53285;SDS011;39171;45.550;12.074;2022-11-20T07:08:20;4.60;;;3.70;;
53285;SDS011;39171;45.550;12.074;2022-11-20T07:14:22;4.22;;;3.75;;
53285;SDS011;39171;45.550;12.074;2022-11-20T07:20:23;4.20;;;3.67;;
53285;SDS011;39171;45.550;12.074;2022-11-20T07:26:24;4.47;;;4.05;;
53285;SDS011;39171;45.550;12.074;2022-11-20T07:32:26;5.78;;;4.43;;
53285;SDS011;39171;45.550;12.074;2022-11-20T07:38:27;5.97;;;4.68;;
53285;SDS011;39171;45.550;12.074;2022-11-20T07:44:29;5.32;;;4.60;;
53285;SDS011;39171;45.550;12.074;2022-11-20T07:50:30;4.65;;;3.83;;
53285;SDS011;39171;45.550;12.074;2022-11-20T07:56:32;4.80;;;4.00;;
53285;SDS011;39171;45.550;12.074;2022-11-20T08:02:33;4.47;;;3.80;;
53285;SDS011;39171;45.550;12.074;2022-11-20T08:08:37;6.95;;;5.38;;
53285;SDS011;39171;45.550;12.074;2022-11-20T08:14:40;8.18;;;6.82;;
53285;SDS011;39171;45.550;12.074;2022-11-20T08:20:41;9.63;;;7.82;;
53285;SDS011;39171;45.550;12.074;2022-11-20T08:26:43;9.35;;;7.15;;
53285;SDS011;39171;45.550;12.074;2022-11-20T08:32:44;7.03;;;6.05;;
53285;SDS011;39171;45.550;12.074;2022-11-20T08:38:46;6.40;;;5.65;;
53285;SDS011;39171;45.550;12.074;2022-11-20T08:44:52;6.25;;;5.18;;
53285;SDS011;39171;45.550;12.074;2022-11-20T08:50:55;5.07;;;4.57;;
53285;SDS011;39171;45.550;12.074;2022-11-20T08:56:59;5.10;;;4.22;;
53285;SDS011;39171;45.550;12.074;2022-11-20T09:03:01;5.10;;;4.05;;
53285;SDS011;39171;45.550;12.074;2022-11-20T09:09:03;3.90;;;3.10;;
53285;SDS011;39171;45.550;12.074;2022-11-20T09:15:04;3.72;;;3.33;;
53285;SDS011;39171;45.550;12.074;2022-11-20T09:21:09;3.78;;;3.30;;
53285;SDS011;39171;45.550;12.074;2022-11-20T09:27:11;4.70;;;3.40;;
53285;SDS011;39171;45.550;12.074;2022-11-20T09:33:13;3.88;;;3.20;;
53285;SDS011;39171;45.550;12.074;2022-11-20T09:39:14;3.42;;;2.95;;
53285;SDS011;39171;45.550;12.074;2022-11-20T09:45:30;3.92;;;3.15;;
53285;SDS011;39171;45.550;12.074;2022-11-20T09:57:56;3.25;;;2.38;;
53285;SDS011;39171;45.550;12.074;2022-11-20T10:04:10;2.67;;;2.08;;
53285;SDS011;39171;45.550;12.074;2022-11-20T10:22:54;2.50;;;1.60;;
53285;SDS011;39171;45.550;12.074;2022-11-20T10:29:29;2.30;;;1.30;;
53285;SDS011;39171;45.550;12.074;2022-11-20T10:35:35;2.30;;;1.60;;
53285;SDS011;39171;45.550;12.074;2022-11-20T10:41:41;2.60;;;1.60;;
53285;SDS011;39171;45.550;12.074;2022-11-20T10:47:44;2.42;;;1.77;;
53285;SDS011;39171;45.550;12.074;2022-11-20T10:59:55;2.50;;;1.33;;
53285;SDS011;39171;45.550;12.074;2022-11-20T11:06:07;1.92;;;1.48;;
53285;SDS011;39171;45.550;12.074;2022-11-20T11:12:27;1.90;;;1.15;;
53285;SDS011;39171;45.550;12.074;2022-11-20T11:18:30;1.90;;;1.40;;
53285;SDS011;39171;45.550;12.074;2022-11-20T11:24:33;1.88;;;1.00;;
53285;SDS011;39171;45.550;12.074;2022-11-20T11:30:41;1.38;;;0.85;;
53285;SDS011;39171;45.550;12.074;2022-11-20T11:37:05;1.60;;;1.10;;
53285;SDS011;39171;45.550;12.074;2022-11-20T11:43:07;1.60;;;1.08;;
53285;SDS011;39171;45.550;12.074;2022-11-20T11:49:37;1.30;;;1.00;;
53285;SDS011;39171;45.550;12.074;2022-11-20T12:02:05;1.23;;;0.80;;
53285;SDS011;39171;45.550;12.074;2022-11-20T12:08:49;1.58;;;1.08;;
53285;SDS011;39171;45.550;12.074;2022-11-20T12:14:56;1.83;;;0.80;;
53285;SDS011;39171;45.550;12.074;2022-11-20T12:39:49;1.27;;;0.87;;
53285;SDS011;39171;45.550;12.074;2022-11-20T12:45:54;1.38;;;0.95;;
53285;SDS011;39171;45.550;12.074;2022-11-20T13:05:02;1.88;;;1.10;;
53285;SDS011;39171;45.550;12.074;2022-11-20T13:23:47;1.33;;;0.90;;
53285;SDS011;39171;45.550;12.074;2022-11-20T13:29:59;1.20;;;1.00;;
53285;SDS011;39171;45.550;12.074;2022-11-20T13:36:04;2.00;;;1.20;;
53285;SDS011;39171;45.550;12.074;2022-11-20T13:48:18;1.40;;;0.90;;
53285;SDS011;39171;45.550;12.074;2022-11-20T13:54:26;1.23;;;0.90;;
53285;SDS011;39171;45.550;12.074;2022-11-20T14:00:57;1.30;;;1.00;;
53285;SDS011;39171;45.550;12.074;2022-11-20T14:07:02;1.55;;;1.00;;
53285;SDS011;39171;45.550;12.074;2022-11-20T14:13:10;1.27;;;0.85;;
53285;SDS011;39171;45.550;12.074;2022-11-20T14:25:23;1.33;;;0.90;;
53285;SDS011;39171;45.550;12.074;2022-11-20T14:31:28;1.48;;;1.00;;
53285;SDS011;39171;45.550;12.074;2022-11-20T14:37:30;1.10;;;0.70;;
53285;SDS011;39171;45.550;12.074;2022-11-20T14:43:36;1.30;;;1.00;;
53285;SDS011;39171;45.550;12.074;2022-11-20T14:49:38;1.60;;;1.00;;
53285;SDS011;39171;45.550;12.074;2022-11-20T14:55:41;1.25;;;0.85;;
53285;SDS011;39171;45.550;12.074;2022-11-20T15:01:42;1.42;;;0.98;;
53285;SDS011;39171;45.550;12.074;2022-11-20T15:08:12;1.95;;;1.10;;
53285;SDS011;39171;45.550;12.074;2022-11-20T15:14:14;1.60;;;1.10;;
53285;SDS011;39171;45.550;12.074;2022-11-20T15:20:16;1.35;;;0.90;;
53285;SDS011;39171;45.550;12.074;2022-11-20T15:26:23;1.40;;;0.90;;
53285;SDS011;39171;45.550;12.074;2022-11-20T15:32:29;1.70;;;1.13;;
53285;SDS011;39171;45.550;12.074;2022-11-20T15:38:30;1.73;;;1.20;;
53285;SDS011;39171;45.550;12.074;2022-11-20T15:44:32;2.08;;;1.45;;
53285;SDS011;39171;45.550;12.074;2022-11-20T15:50:34;2.72;;;1.75;;
53285;SDS011;39171;45.550;12.074;2022-11-20T15:56:38;3.00;;;2.35;;
53285;SDS011;39171;45.550;12.074;2022-11-20T16:02:40;3.85;;;2.90;;
53285;SDS011;39171;45.550;12.074;2022-11-20T16:08:44;4.50;;;3.70;;
53285;SDS011;39171;45.550;12.074;2022-11-20T16:14:46;6.70;;;5.63;;
53285;SDS011;39171;45.550;12.074;2022-11-20T16:21:10;8.10;;;6.38;;
53285;SDS011;39171;45.550;12.074;2022-11-20T16:27:12;8.18;;;6.93;;
53285;SDS011;39171;45.550;12.074;2022-11-20T16:33:14;8.32;;;6.63;;
53285;SDS011;39171;45.550;12.074;2022-11-20T16:39:17;9.30;;;6.80;;
53285;SDS011;39171;45.550;12.074;2022-11-20T16:45:19;9.32;;;7.18;;
53285;SDS011;39171;45.550;12.074;2022-11-20T16:51:21;9.38;;;7.40;;
53285;SDS011;39171;45.550;12.074;2022-11-20T16:57:25;8.98;;;7.32;;
53285;SDS011;39171;45.550;12.074;2022-11-20T17:03:29;8.13;;;6.50;;
53285;SDS011;39171;45.550;12.074;2022-11-20T17:09:30;8.70;;;6.35;;
53285;SDS011;39171;45.550;12.074;2022-11-20T17:15:31;8.15;;;6.50;;
53285;SDS011;39171;45.550;12.074;2022-11-20T17:21:33;6.28;;;5.30;;
53285;SDS011;39171;45.550;12.074;2022-11-20T17:27:36;6.10;;;5.50;;
53285;SDS011;39171;45.550;12.074;2022-11-20T17:33:38;7.00;;;5.60;;
53285;SDS011;39171;45.550;12.074;2022-11-20T17:39:40;7.20;;;5.57;;
53285;SDS011;39171;45.550;12.074;2022-11-20T17:45:41;8.32;;;6.50;;
53285;SDS011;39171;45.550;12.074;2022-11-20T17:51:44;8.98;;;7.05;;
53285;SDS011;39171;45.550;12.074;2022-11-20T17:57:45;9.98;;;8.02;;
53285;SDS011;39171;45.550;12.074;2022-11-20T18:03:52;14.55;;;11.55;;
53285;SDS011;39171;45.550;12.074;2022-11-20T18:09:57;18.65;;;14.73;;
53285;SDS011;39171;45.550;12.074;2022-11-20T18:16:05;19.55;;;15.93;;
53285;SDS011;39171;45.550;12.074;2022-11-20T18:22:07;21.27;;;18.23;;
53285;SDS011;39171;45.550;12.074;2022-11-20T18:28:09;22.50;;;18.77;;
53285;SDS011;39171;45.550;12.074;2022-11-20T18:34:10;21.00;;;17.50;;
53285;SDS011;39171;45.550;12.074;2022-11-20T18:40:13;21.20;;;17.85;;
53285;SDS011;39171;45.550;12.074;2022-11-20T18:46:15;19.73;;;16.23;;
53285;SDS011;39171;45.550;12.074;2022-11-20T18:52:17;20.67;;;16.23;;
53285;SDS011;39171;45.550;12.074;2022-11-20T18:58:23;20.23;;;15.35;;
53285;SDS011;39171;45.550;12.074;2022-11-20T19:04:24;20.67;;;16.20;;
53285;SDS011;39171;45.550;12.074;2022-11-20T19:10:26;20.52;;;16.38;;
53285;SDS011;39171;45.550;12.074;2022-11-20T19:16:27;21.90;;;18.40;;
53285;SDS011;39171;45.550;12.074;2022-11-20T19:22:29;23.63;;;19.92;;
53285;SDS011;39171;45.550;12.074;2022-11-20T19:28:31;26.27;;;20.50;;
53285;SDS011;39171;45.550;12.074;2022-11-20T19:34:33;22.10;;;18.92;;
53285;SDS011;39171;45.550;12.074;2022-11-20T19:40:34;20.75;;;18.45;;
53285;SDS011;39171;45.550;12.074;2022-11-20T19:46:36;20.85;;;17.08;;
53285;SDS011;39171;45.550;12.074;2022-11-20T19:52:39;20.90;;;16.35;;
53285;SDS011;39171;45.550;12.074;2022-11-20T19:58:40;16.67;;;14.40;;
53285;SDS011;39171;45.550;12.074;2022-11-20T20:04:42;17.02;;;14.40;;
53285;SDS011;39171;45.550;12.074;2022-11-20T20:10:43;17.13;;;13.80;;
53285;SDS011;39171;45.550;12.074;2022-11-20T20:16:45;14.60;;;12.57;;
53285;SDS011;39171;45.550;12.074;2022-11-20T20:22:46;15.05;;;11.68;;
53285;SDS011;39171;45.550;12.074;2022-11-20T20:28:48;13.48;;;11.63;;
53285;SDS011;39171;45.550;12.074;2022-11-20T20:34:50;14.15;;;11.38;;
53285;SDS011;39171;45.550;12.074;2022-11-20T20:40:51;14.13;;;12.05;;
53285;SDS011;39171;45.550;12.074;2022-11-20T20:46:53;14.35;;;12.38;;
53285;SDS011;39171;45.550;12.074;2022-11-20T20:52:54;13.23;;;11.57;;
53285;SDS011;39171;45.550;12.074;2022-11-20T20:58:56;13.55;;;11.45;;
53285;SDS011;39171;45.550;12.074;2022-11-20T21:04:57;12.82;;;10.98;;
53285;SDS011;39171;45.550;12.074;2022-11-20T21:11:00;11.82;;;10.45;;
53285;SDS011;39171;45.550;12.074;2022-11-20T21:17:02;12.30;;;10.05;;
53285;SDS011;39171;45.550;12.074;2022-11-20T21:23:07;12.27;;;9.90;;
53285;SDS011;39171;45.550;12.074;2022-11-20T21:29:09;10.50;;;9.02;;
53285;SDS011;39171;45.550;12.074;2022-11-20T21:35:11;11.07;;;9.48;;
53285;SDS011;39171;45.550;12.074;2022-11-20T21:41:13;10.50;;;9.32;;
53285;SDS011;39171;45.550;12.074;2022-11-20T21:47:15;9.32;;;8.35;;
53285;SDS011;39171;45.550;12.074;2022-11-20T21:53:16;11.10;;;9.50;;
53285;SDS011;39171;45.550;12.074;2022-11-20T21:59:20;9.82;;;8.60;;
53285;SDS011;39171;45.550;12.074;2022-11-20T22:05:22;10.20;;;8.32;;
53285;SDS011;39171;45.550;12.074;2022-11-20T22:11:24;9.95;;;7.80;;
53285;SDS011;39171;45.550;12.074;2022-11-20T22:17:25;8.95;;;7.80;;
53285;SDS011;39171;45.550;12.074;2022-11-20T22:23:45;9.20;;;7.53;;
53285;SDS011;39171;45.550;12.074;2022-11-20T22:29:46;9.25;;;7.80;;
53285;SDS011;39171;45.550;12.074;2022-11-20T22:35:48;9.60;;;7.50;;
53285;SDS011;39171;45.550;12.074;2022-11-20T22:41:49;8.95;;;7.60;;
53285;SDS011;39171;45.550;12.074;2022-11-20T22:47:51;8.80;;;7.88;;
53285;SDS011;39171;45.550;12.074;2022-11-20T22:53:52;11.13;;;7.90;;
53285;SDS011;39171;45.550;12.074;2022-11-20T22:59:54;8.82;;;7.75;;
53285;SDS011;39171;45.550;12.074;2022-11-20T23:05:57;9.48;;;8.48;;
53285;SDS011;39171;45.550;12.074;2022-11-20T23:11:59;9.75;;;8.05;;
53285;SDS011;39171;45.550;12.074;2022-11-20T23:18:01;9.40;;;8.15;;
53285;SDS011;39171;45.550;12.074;2022-11-20T23:24:02;9.48;;;8.02;;
53285;SDS011;39171;45.550;12.074;2022-11-20T23:30:05;9.32;;;8.18;;
53285;SDS011;39171;45.550;12.074;2022-11-20T23:36:06;8.73;;;7.47;;
53285;SDS011;39171;45.550;12.074;2022-11-20T23:42:08;9.13;;;7.88;;
53285;SDS011;39171;45.550;12.074;2022-11-20T23:48:10;8.43;;;7.57;;
53285;SDS011;39171;45.550;12.074;2022-11-20T23:54:11;8.38;;;6.88;;
